sensor_id;sensor_type;location;lat;lon;timestamp;temperature;humidity
16964;DHT22;8598;50.508;10.436;2022-10-03T00:00:08;5.60;99.90
16964;DHT22;8598;50.508;10.436;2022-10-03T00:03:10;5.60;99.90
16964;DHT22;8598;50.508;10.436;2022-10-03T00:05:54;5.60;99.90
16964;DHT22;8598;50.508;10.436;2022-10-03T00:08:36;5.60;99.90
16964;DHT22;8598;50.508;10.436;2022-10-03T00:11:16;5.50;99.90
16964;DHT22;8598;50.508;10.436;2022-10-03T00:13:52;5.40;99.90
16964;DHT22;8598;50.508;10.436;2022-10-03T00:16:28;5.40;99.90
16964;DHT22;8598;50.508;10.436;2022-10-03T00:19:07;5.40;99.90
16964;DHT22;8598;50.508;10.436;2022-10-03T00:21:49;5.40;99.90
16964;DHT22;8598;50.508;10.436;2022-10-03T00:24:27;5.40;99.90
16964;DHT22;8598;50.508;10.436;2022-10-03T00:27:04;5.40;99.90
16964;DHT22;8598;50.508;10.436;2022-10-03T00:29:49;5.40;99.90
16964;DHT22;8598;50.508;10.436;2022-10-03T00:32:27;5.40;99.90
16964;DHT22;8598;50.508;10.436;2022-10-03T00:35:15;5.50;99.90
16964;DHT22;8598;50.508;10.436;2022-10-03T00:37:57;5.50;99.90
16964;DHT22;8598;50.508;10.436;2022-10-03T00:40:35;5.50;99.90
16964;DHT22;8598;50.508;10.436;2022-10-03T00:43:40;5.60;99.90
16964;DHT22;8598;50.508;10.436;2022-10-03T00:46:36;5.70;99.90
16964;DHT22;8598;50.508;10.436;2022-10-03T00:52:18;5.80;99.90
16964;DHT22;8598;50.508;10.436;2022-10-03T00:55:04;5.70;99.90
16964;DHT22;8598;50.508;10.436;2022-10-03T00:57:54;5.70;99.90
16964;DHT22;8598;50.508;10.436;2022-10-03T01:00:26;5.60;99.90
16964;DHT22;8598;50.508;10.436;2022-10-03T01:03:04;5.60;99.90
16964;DHT22;8598;50.508;10.436;2022-10-03T01:05:42;5.60;99.90
16964;DHT22;8598;50.508;10.436;2022-10-03T01:08:40;5.50;99.90
16964;DHT22;8598;50.508;10.436;2022-10-03T01:11:21;5.60;99.90
16964;DHT22;8598;50.508;10.436;2022-10-03T01:14:01;5.60;99.90
16964;DHT22;8598;50.508;10.436;2022-10-03T01:16:38;5.70;99.90
16964;DHT22;8598;50.508;10.436;2022-10-03T01:19:26;5.60;99.90
16964;DHT22;8598;50.508;10.436;2022-10-03T01:22:03;5.60;99.90
16964;DHT22;8598;50.508;10.436;2022-10-03T01:24:51;5.60;99.90
16964;DHT22;8598;50.508;10.436;2022-10-03T01:27:25;5.60;99.90
16964;DHT22;8598;50.508;10.436;2022-10-03T01:30:00;5.60;99.90
16964;DHT22;8598;50.508;10.436;2022-10-03T01:32:49;5.60;99.90
16964;DHT22;8598;50.508;10.436;2022-10-03T01:35:35;5.70;99.90
16964;DHT22;8598;50.508;10.436;2022-10-03T01:38:11;5.70;99.90
16964;DHT22;8598;50.508;10.436;2022-10-03T01:40:46;5.70;99.90
16964;DHT22;8598;50.508;10.436;2022-10-03T01:43:18;5.70;99.90
16964;DHT22;8598;50.508;10.436;2022-10-03T01:46:04;5.70;99.90
16964;DHT22;8598;50.508;10.436;2022-10-03T01:48:38;5.70;99.90
16964;DHT22;8598;50.508;10.436;2022-10-03T01:51:09;5.80;99.90
16964;DHT22;8598;50.508;10.436;2022-10-03T01:53:54;5.80;99.90
16964;DHT22;8598;50.508;10.436;2022-10-03T01:56:28;5.80;99.90
16964;DHT22;8598;50.508;10.436;2022-10-03T01:59:02;5.80;99.90
16964;DHT22;8598;50.508;10.436;2022-10-03T02:01:42;5.80;99.90
16964;DHT22;8598;50.508;10.436;2022-10-03T02:04:14;5.80;99.90
16964;DHT22;8598;50.508;10.436;2022-10-03T02:06:50;5.80;99.90
16964;DHT22;8598;50.508;10.436;2022-10-03T02:09:28;5.70;99.90
16964;DHT22;8598;50.508;10.436;2022-10-03T02:12:01;5.70;99.90
16964;DHT22;8598;50.508;10.436;2022-10-03T02:14:33;5.80;99.90
16964;DHT22;8598;50.508;10.436;2022-10-03T02:17:05;5.80;99.90
16964;DHT22;8598;50.508;10.436;2022-10-03T02:19:40;5.80;99.90
16964;DHT22;8598;50.508;10.436;2022-10-03T02:22:13;5.80;99.90
16964;DHT22;8598;50.508;10.436;2022-10-03T02:24:45;5.90;99.90
16964;DHT22;8598;50.508;10.436;2022-10-03T02:30:19;6.00;99.90
16964;DHT22;8598;50.508;10.436;2022-10-03T02:36:06;6.10;99.90
16964;DHT22;8598;50.508;10.436;2022-10-03T02:42:22;6.10;99.90
16964;DHT22;8598;50.508;10.436;2022-10-03T02:48:24;6.10;99.90
16964;DHT22;8598;50.508;10.436;2022-10-03T02:51:09;6.10;99.90
16964;DHT22;8598;50.508;10.436;2022-10-03T02:56:57;6.20;99.90
16964;DHT22;8598;50.508;10.436;2022-10-03T02:59:57;6.20;99.90
16964;DHT22;8598;50.508;10.436;2022-10-03T03:12:28;6.30;99.90
16964;DHT22;8598;50.508;10.436;2022-10-03T03:15:27;6.40;99.90
16964;DHT22;8598;50.508;10.436;2022-10-03T03:18:06;6.40;99.90
16964;DHT22;8598;50.508;10.436;2022-10-03T03:20:48;6.40;99.90
16964;DHT22;8598;50.508;10.436;2022-10-03T03:23:39;6.50;99.90
16964;DHT22;8598;50.508;10.436;2022-10-03T03:26:33;6.50;99.90
16964;DHT22;8598;50.508;10.436;2022-10-03T03:29:15;6.50;99.90
16964;DHT22;8598;50.508;10.436;2022-10-03T03:31:51;6.60;99.90
16964;DHT22;8598;50.508;10.436;2022-10-03T03:34:24;6.60;99.90
16964;DHT22;8598;50.508;10.436;2022-10-03T03:36:57;6.60;99.90
16964;DHT22;8598;50.508;10.436;2022-10-03T03:39:45;6.70;99.90
16964;DHT22;8598;50.508;10.436;2022-10-03T03:42:36;6.70;99.90
16964;DHT22;8598;50.508;10.436;2022-10-03T03:45:15;6.70;99.90
16964;DHT22;8598;50.508;10.436;2022-10-03T03:47:57;6.70;99.90
16964;DHT22;8598;50.508;10.436;2022-10-03T03:50:42;6.70;99.90
16964;DHT22;8598;50.508;10.436;2022-10-03T03:53:39;6.70;99.90
16964;DHT22;8598;50.508;10.436;2022-10-03T03:56:26;6.70;99.90
16964;DHT22;8598;50.508;10.436;2022-10-03T03:59:04;6.70;99.90
16964;DHT22;8598;50.508;10.436;2022-10-03T04:01:48;6.70;99.90
16964;DHT22;8598;50.508;10.436;2022-10-03T04:04:27;6.70;99.90
16964;DHT22;8598;50.508;10.436;2022-10-03T04:07:07;6.70;99.90
16964;DHT22;8598;50.508;10.436;2022-10-03T04:09:57;6.70;99.90
16964;DHT22;8598;50.508;10.436;2022-10-03T04:12:40;6.70;99.90
16964;DHT22;8598;50.508;10.436;2022-10-03T04:15:33;6.60;99.90
16964;DHT22;8598;50.508;10.436;2022-10-03T04:21:34;6.50;99.90
16964;DHT22;8598;50.508;10.436;2022-10-03T04:24:37;6.50;99.90
16964;DHT22;8598;50.508;10.436;2022-10-03T04:27:23;6.50;99.90
16964;DHT22;8598;50.508;10.436;2022-10-03T04:30:03;6.50;99.90
16964;DHT22;8598;50.508;10.436;2022-10-03T04:39:01;6.60;99.90
16964;DHT22;8598;50.508;10.436;2022-10-03T04:41:37;6.60;99.90
16964;DHT22;8598;50.508;10.436;2022-10-03T04:44:14;6.60;99.90
16964;DHT22;8598;50.508;10.436;2022-10-03T04:46:49;6.60;99.90
16964;DHT22;8598;50.508;10.436;2022-10-03T04:49:23;6.60;99.90
16964;DHT22;8598;50.508;10.436;2022-10-03T04:51:59;6.50;99.90
16964;DHT22;8598;50.508;10.436;2022-10-03T04:54:38;6.50;99.90
16964;DHT22;8598;50.508;10.436;2022-10-03T04:57:19;6.40;99.90
16964;DHT22;8598;50.508;10.436;2022-10-03T04:59:50;6.40;99.90
16964;DHT22;8598;50.508;10.436;2022-10-03T05:02:31;6.40;99.90
16964;DHT22;8598;50.508;10.436;2022-10-03T05:07:59;6.40;99.90
16964;DHT22;8598;50.508;10.436;2022-10-03T05:10:43;6.50;99.90
16964;DHT22;8598;50.508;10.436;2022-10-03T05:13:17;6.60;99.90
16964;DHT22;8598;50.508;10.436;2022-10-03T05:15:53;6.60;99.90
16964;DHT22;8598;50.508;10.436;2022-10-03T05:18:26;6.60;99.90
16964;DHT22;8598;50.508;10.436;2022-10-03T05:21:03;6.50;99.90
16964;DHT22;8598;50.508;10.436;2022-10-03T05:23:44;6.60;99.90
16964;DHT22;8598;50.508;10.436;2022-10-03T05:26:21;6.60;99.90
16964;DHT22;8598;50.508;10.436;2022-10-03T05:28:56;6.60;99.90
16964;DHT22;8598;50.508;10.436;2022-10-03T05:31:39;6.60;99.90
16964;DHT22;8598;50.508;10.436;2022-10-03T05:34:19;6.60;99.90
16964;DHT22;8598;50.508;10.436;2022-10-03T05:37:01;6.70;99.90
16964;DHT22;8598;50.508;10.436;2022-10-03T05:39:39;6.80;99.90
16964;DHT22;8598;50.508;10.436;2022-10-03T05:42:36;6.80;99.90
16964;DHT22;8598;50.508;10.436;2022-10-03T05:45:18;6.90;99.90
16964;DHT22;8598;50.508;10.436;2022-10-03T05:47:50;6.90;99.90
16964;DHT22;8598;50.508;10.436;2022-10-03T05:50:31;6.90;99.90
16964;DHT22;8598;50.508;10.436;2022-10-03T05:53:10;6.90;99.90
16964;DHT22;8598;50.508;10.436;2022-10-03T05:55:50;6.90;99.90
16964;DHT22;8598;50.508;10.436;2022-10-03T05:58:30;7.00;99.90
16964;DHT22;8598;50.508;10.436;2022-10-03T06:04:20;7.10;99.90
16964;DHT22;8598;50.508;10.436;2022-10-03T06:07:04;7.20;99.90
16964;DHT22;8598;50.508;10.436;2022-10-03T06:12:31;7.40;99.90
16964;DHT22;8598;50.508;10.436;2022-10-03T06:18:31;7.60;99.90
16964;DHT22;8598;50.508;10.436;2022-10-03T06:24:25;7.80;99.90
16964;DHT22;8598;50.508;10.436;2022-10-03T06:27:19;7.90;99.90
16964;DHT22;8598;50.508;10.436;2022-10-03T06:30:09;8.00;99.90
16964;DHT22;8598;50.508;10.436;2022-10-03T06:39:20;8.30;99.90
16964;DHT22;8598;50.508;10.436;2022-10-03T06:42:19;8.40;99.90
16964;DHT22;8598;50.508;10.436;2022-10-03T06:47:52;8.60;99.90
16964;DHT22;8598;50.508;10.436;2022-10-03T06:53:36;8.70;99.90
16964;DHT22;8598;50.508;10.436;2022-10-03T06:59:48;8.90;99.90
16964;DHT22;8598;50.508;10.436;2022-10-03T07:02:35;9.00;99.90
16964;DHT22;8598;50.508;10.436;2022-10-03T07:05:40;9.20;99.90
16964;DHT22;8598;50.508;10.436;2022-10-03T07:11:38;9.60;99.90
16964;DHT22;8598;50.508;10.436;2022-10-03T07:14:57;9.60;99.90
16964;DHT22;8598;50.508;10.436;2022-10-03T07:17:40;9.70;99.90
16964;DHT22;8598;50.508;10.436;2022-10-03T07:20:31;9.70;99.90
16964;DHT22;8598;50.508;10.436;2022-10-03T07:23:43;10.00;99.90
16964;DHT22;8598;50.508;10.436;2022-10-03T07:26:33;10.10;99.90
16964;DHT22;8598;50.508;10.436;2022-10-03T07:35:15;10.90;99.90
16964;DHT22;8598;50.508;10.436;2022-10-03T07:38:10;11.10;99.90
16964;DHT22;8598;50.508;10.436;2022-10-03T07:41:20;11.30;99.90
16964;DHT22;8598;50.508;10.436;2022-10-03T07:44:21;11.40;99.90
16964;DHT22;8598;50.508;10.436;2022-10-03T07:47:34;11.60;99.90
16964;DHT22;8598;50.508;10.436;2022-10-03T07:53:30;11.90;99.90
16964;DHT22;8598;50.508;10.436;2022-10-03T07:56:08;12.10;99.90
16964;DHT22;8598;50.508;10.436;2022-10-03T07:58:56;12.10;99.90
16964;DHT22;8598;50.508;10.436;2022-10-03T08:01:50;12.30;99.90
16964;DHT22;8598;50.508;10.436;2022-10-03T08:08:00;12.70;99.90
16964;DHT22;8598;50.508;10.436;2022-10-03T08:11:00;12.70;99.90
16964;DHT22;8598;50.508;10.436;2022-10-03T08:13:43;13.00;99.90
16964;DHT22;8598;50.508;10.436;2022-10-03T08:16:28;12.80;99.90
16964;DHT22;8598;50.508;10.436;2022-10-03T08:19:23;12.80;99.90
16964;DHT22;8598;50.508;10.436;2022-10-03T08:22:03;13.00;99.90
16964;DHT22;8598;50.508;10.436;2022-10-03T08:25:01;13.20;99.90
16964;DHT22;8598;50.508;10.436;2022-10-03T08:27:48;13.20;99.90
16964;DHT22;8598;50.508;10.436;2022-10-03T08:30:20;13.40;99.90
16964;DHT22;8598;50.508;10.436;2022-10-03T08:33:18;13.30;99.90
16964;DHT22;8598;50.508;10.436;2022-10-03T08:39:15;13.10;99.90
16964;DHT22;8598;50.508;10.436;2022-10-03T08:45:04;13.10;99.90
16964;DHT22;8598;50.508;10.436;2022-10-03T08:48:01;12.90;99.90
16964;DHT22;8598;50.508;10.436;2022-10-03T08:50:50;13.00;99.90
16964;DHT22;8598;50.508;10.436;2022-10-03T08:53:49;13.00;99.90
16964;DHT22;8598;50.508;10.436;2022-10-03T08:56:26;13.10;99.90
16964;DHT22;8598;50.508;10.436;2022-10-03T08:59:46;13.20;99.90
16964;DHT22;8598;50.508;10.436;2022-10-03T09:05:33;12.80;99.90
16964;DHT22;8598;50.508;10.436;2022-10-03T09:11:42;13.40;99.90
16964;DHT22;8598;50.508;10.436;2022-10-03T09:14:31;13.40;99.90
16964;DHT22;8598;50.508;10.436;2022-10-03T09:17:15;13.30;99.90
16964;DHT22;8598;50.508;10.436;2022-10-03T09:20:24;13.60;99.90
16964;DHT22;8598;50.508;10.436;2022-10-03T09:23:22;13.90;99.90
16964;DHT22;8598;50.508;10.436;2022-10-03T09:26:23;14.10;99.90
16964;DHT22;8598;50.508;10.436;2022-10-03T09:29:29;14.00;99.90
16964;DHT22;8598;50.508;10.436;2022-10-03T09:35:39;14.40;99.90
16964;DHT22;8598;50.508;10.436;2022-10-03T09:38:42;14.30;99.90
16964;DHT22;8598;50.508;10.436;2022-10-03T09:41:43;14.40;99.90
16964;DHT22;8598;50.508;10.436;2022-10-03T09:44:43;14.30;99.90
16964;DHT22;8598;50.508;10.436;2022-10-03T09:48:00;13.70;99.90
16964;DHT22;8598;50.508;10.436;2022-10-03T09:51:14;13.50;99.90
16964;DHT22;8598;50.508;10.436;2022-10-03T09:57:05;13.40;99.90
16964;DHT22;8598;50.508;10.436;2022-10-03T10:00:06;13.70;99.90
16964;DHT22;8598;50.508;10.436;2022-10-03T10:15:26;13.70;99.90
16964;DHT22;8598;50.508;10.436;2022-10-03T10:21:37;14.00;99.90
16964;DHT22;8598;50.508;10.436;2022-10-03T10:24:39;13.70;99.90
16964;DHT22;8598;50.508;10.436;2022-10-03T10:27:30;13.90;99.90
16964;DHT22;8598;50.508;10.436;2022-10-03T10:30:18;14.10;99.90
16964;DHT22;8598;50.508;10.436;2022-10-03T10:36:30;14.10;99.90
16964;DHT22;8598;50.508;10.436;2022-10-03T10:39:33;14.40;99.90
16964;DHT22;8598;50.508;10.436;2022-10-03T10:45:23;14.50;99.90
16964;DHT22;8598;50.508;10.436;2022-10-03T10:51:38;14.60;99.90
16964;DHT22;8598;50.508;10.436;2022-10-03T10:54:50;15.00;99.90
16964;DHT22;8598;50.508;10.436;2022-10-03T10:57:59;15.00;99.90
16964;DHT22;8598;50.508;10.436;2022-10-03T11:00:45;15.10;99.90
16964;DHT22;8598;50.508;10.436;2022-10-03T11:03:57;15.40;99.90
16964;DHT22;8598;50.508;10.436;2022-10-03T11:07:07;15.40;99.90
16964;DHT22;8598;50.508;10.436;2022-10-03T11:09:51;15.20;99.90
16964;DHT22;8598;50.508;10.436;2022-10-03T11:16:14;14.90;99.90
16964;DHT22;8598;50.508;10.436;2022-10-03T11:19:34;15.00;99.90
16964;DHT22;8598;50.508;10.436;2022-10-03T11:25:35;15.10;99.90
16964;DHT22;8598;50.508;10.436;2022-10-03T11:37:40;14.40;99.90
16964;DHT22;8598;50.508;10.436;2022-10-03T11:40:22;14.20;99.90
16964;DHT22;8598;50.508;10.436;2022-10-03T11:42:59;13.90;99.90
16964;DHT22;8598;50.508;10.436;2022-10-03T11:45:31;13.80;99.90
16964;DHT22;8598;50.508;10.436;2022-10-03T11:50:54;14.00;99.90
16964;DHT22;8598;50.508;10.436;2022-10-03T11:53:35;14.20;99.90
16964;DHT22;8598;50.508;10.436;2022-10-03T11:56:20;14.40;99.90
16964;DHT22;8598;50.508;10.436;2022-10-03T11:59:08;14.70;99.90
16964;DHT22;8598;50.508;10.436;2022-10-03T12:01:51;14.80;99.90
16964;DHT22;8598;50.508;10.436;2022-10-03T12:04:27;14.80;99.90
16964;DHT22;8598;50.508;10.436;2022-10-03T12:06:59;14.80;99.90
16964;DHT22;8598;50.508;10.436;2022-10-03T12:10:00;14.80;99.90
16964;DHT22;8598;50.508;10.436;2022-10-03T12:12:35;14.90;99.90
16964;DHT22;8598;50.508;10.436;2022-10-03T12:15:20;15.20;99.90
16964;DHT22;8598;50.508;10.436;2022-10-03T12:17:57;15.00;99.90
16964;DHT22;8598;50.508;10.436;2022-10-03T12:20:34;15.00;99.90
16964;DHT22;8598;50.508;10.436;2022-10-03T12:23:07;14.70;99.90
16964;DHT22;8598;50.508;10.436;2022-10-03T12:25:42;14.60;99.90
16964;DHT22;8598;50.508;10.436;2022-10-03T12:28:14;14.60;99.90
16964;DHT22;8598;50.508;10.436;2022-10-03T12:30:47;14.50;99.90
16964;DHT22;8598;50.508;10.436;2022-10-03T12:33:45;14.60;99.90
16964;DHT22;8598;50.508;10.436;2022-10-03T12:36:16;14.90;99.90
16964;DHT22;8598;50.508;10.436;2022-10-03T12:39:02;14.80;99.90
16964;DHT22;8598;50.508;10.436;2022-10-03T12:41:59;14.90;99.90
16964;DHT22;8598;50.508;10.436;2022-10-03T12:44:41;15.10;99.90
16964;DHT22;8598;50.508;10.436;2022-10-03T12:47:24;15.00;99.90
16964;DHT22;8598;50.508;10.436;2022-10-03T12:49:55;15.10;99.90
16964;DHT22;8598;50.508;10.436;2022-10-03T12:52:27;15.10;99.90
16964;DHT22;8598;50.508;10.436;2022-10-03T12:55:05;15.00;99.90
16964;DHT22;8598;50.508;10.436;2022-10-03T12:57:49;15.20;99.90
16964;DHT22;8598;50.508;10.436;2022-10-03T13:00:20;15.20;99.90
16964;DHT22;8598;50.508;10.436;2022-10-03T13:03:11;14.80;99.90
16964;DHT22;8598;50.508;10.436;2022-10-03T13:05:55;14.80;99.90
16964;DHT22;8598;50.508;10.436;2022-10-03T13:08:41;14.90;99.90
16964;DHT22;8598;50.508;10.436;2022-10-03T13:11:31;14.90;99.90
16964;DHT22;8598;50.508;10.436;2022-10-03T13:14:20;15.20;99.90
16964;DHT22;8598;50.508;10.436;2022-10-03T13:16:56;15.30;99.90
16964;DHT22;8598;50.508;10.436;2022-10-03T13:19:30;15.40;99.90
16964;DHT22;8598;50.508;10.436;2022-10-03T13:22:03;15.30;99.90
16964;DHT22;8598;50.508;10.436;2022-10-03T13:24:39;15.10;99.90
16964;DHT22;8598;50.508;10.436;2022-10-03T13:27:25;14.90;99.90
16964;DHT22;8598;50.508;10.436;2022-10-03T13:30:03;14.70;99.90
16964;DHT22;8598;50.508;10.436;2022-10-03T13:32:32;14.80;99.90
16964;DHT22;8598;50.508;10.436;2022-10-03T13:35:15;14.80;99.90
16964;DHT22;8598;50.508;10.436;2022-10-03T13:41:07;14.80;99.90
16964;DHT22;8598;50.508;10.436;2022-10-03T13:43:38;14.70;99.90
16964;DHT22;8598;50.508;10.436;2022-10-03T13:46:14;14.70;99.90
16964;DHT22;8598;50.508;10.436;2022-10-03T13:48:47;14.80;99.90
16964;DHT22;8598;50.508;10.436;2022-10-03T13:51:26;14.90;99.90
16964;DHT22;8598;50.508;10.436;2022-10-03T13:54:01;15.00;99.90
16964;DHT22;8598;50.508;10.436;2022-10-03T13:56:42;15.10;99.90
16964;DHT22;8598;50.508;10.436;2022-10-03T14:02:05;15.10;99.90
16964;DHT22;8598;50.508;10.436;2022-10-03T14:04:56;15.20;99.90
16964;DHT22;8598;50.508;10.436;2022-10-03T14:07:35;15.10;99.90
16964;DHT22;8598;50.508;10.436;2022-10-03T14:10:10;15.20;99.90
16964;DHT22;8598;50.508;10.436;2022-10-03T14:12:53;15.20;99.90
16964;DHT22;8598;50.508;10.436;2022-10-03T14:15:38;15.20;99.90
16964;DHT22;8598;50.508;10.436;2022-10-03T14:18:19;15.40;99.90
16964;DHT22;8598;50.508;10.436;2022-10-03T14:21:16;15.40;99.90
16964;DHT22;8598;50.508;10.436;2022-10-03T14:23:51;15.10;99.90
16964;DHT22;8598;50.508;10.436;2022-10-03T14:26:23;15.10;99.90
16964;DHT22;8598;50.508;10.436;2022-10-03T14:28:57;15.20;99.90
16964;DHT22;8598;50.508;10.436;2022-10-03T14:31:31;15.10;99.90
16964;DHT22;8598;50.508;10.436;2022-10-03T14:34:09;14.90;99.90
16964;DHT22;8598;50.508;10.436;2022-10-03T14:36:43;14.90;99.90
16964;DHT22;8598;50.508;10.436;2022-10-03T14:39:28;14.90;99.90
16964;DHT22;8598;50.508;10.436;2022-10-03T14:42:24;14.80;99.90
16964;DHT22;8598;50.508;10.436;2022-10-03T14:44:54;14.70;99.90
16964;DHT22;8598;50.508;10.436;2022-10-03T14:47:22;14.80;99.90
16964;DHT22;8598;50.508;10.436;2022-10-03T14:49:53;14.70;99.90
16964;DHT22;8598;50.508;10.436;2022-10-03T14:52:26;14.80;99.90
16964;DHT22;8598;50.508;10.436;2022-10-03T14:54:56;14.70;99.90
16964;DHT22;8598;50.508;10.436;2022-10-03T14:57:30;14.50;99.90
16964;DHT22;8598;50.508;10.436;2022-10-03T14:59:57;14.60;99.90
16964;DHT22;8598;50.508;10.436;2022-10-03T15:02:28;14.60;99.90
16964;DHT22;8598;50.508;10.436;2022-10-03T15:05:02;14.40;99.90
16964;DHT22;8598;50.508;10.436;2022-10-03T15:07:34;14.40;99.90
16964;DHT22;8598;50.508;10.436;2022-10-03T15:10:03;14.50;99.90
16964;DHT22;8598;50.508;10.436;2022-10-03T15:12:35;14.40;99.90
16964;DHT22;8598;50.508;10.436;2022-10-03T15:15:06;14.50;99.90
16964;DHT22;8598;50.508;10.436;2022-10-03T15:17:43;14.30;99.90
16964;DHT22;8598;50.508;10.436;2022-10-03T15:20:12;14.20;99.90
16964;DHT22;8598;50.508;10.436;2022-10-03T15:22:47;14.20;99.90
16964;DHT22;8598;50.508;10.436;2022-10-03T15:25:17;14.20;99.90
16964;DHT22;8598;50.508;10.436;2022-10-03T15:27:48;14.20;99.90
16964;DHT22;8598;50.508;10.436;2022-10-03T15:30:19;14.10;99.90
16964;DHT22;8598;50.508;10.436;2022-10-03T15:32:47;14.00;99.90
16964;DHT22;8598;50.508;10.436;2022-10-03T15:35:18;13.90;99.90
16964;DHT22;8598;50.508;10.436;2022-10-03T15:37:48;13.90;99.90
16964;DHT22;8598;50.508;10.436;2022-10-03T15:40:21;13.80;99.90
16964;DHT22;8598;50.508;10.436;2022-10-03T15:42:52;13.80;99.90
16964;DHT22;8598;50.508;10.436;2022-10-03T15:45:27;13.70;99.90
16964;DHT22;8598;50.508;10.436;2022-10-03T15:48:00;13.70;99.90
16964;DHT22;8598;50.508;10.436;2022-10-03T15:50:30;13.70;99.90
16964;DHT22;8598;50.508;10.436;2022-10-03T15:53:02;13.60;99.90
16964;DHT22;8598;50.508;10.436;2022-10-03T15:55:35;13.50;99.90
16964;DHT22;8598;50.508;10.436;2022-10-03T15:58:13;13.50;99.90
16964;DHT22;8598;50.508;10.436;2022-10-03T16:00:50;13.30;99.90
16964;DHT22;8598;50.508;10.436;2022-10-03T16:03:23;13.30;99.90
16964;DHT22;8598;50.508;10.436;2022-10-03T16:06:01;13.20;99.90
16964;DHT22;8598;50.508;10.436;2022-10-03T16:08:35;13.20;99.90
16964;DHT22;8598;50.508;10.436;2022-10-03T16:11:12;13.10;99.90
16964;DHT22;8598;50.508;10.436;2022-10-03T16:13:43;12.90;99.90
16964;DHT22;8598;50.508;10.436;2022-10-03T16:16:16;13.00;99.90
16964;DHT22;8598;50.508;10.436;2022-10-03T16:18:47;12.90;99.90
16964;DHT22;8598;50.508;10.436;2022-10-03T16:21:29;12.80;99.90
16964;DHT22;8598;50.508;10.436;2022-10-03T16:24:00;12.80;99.90
16964;DHT22;8598;50.508;10.436;2022-10-03T16:26:28;12.70;99.90
16964;DHT22;8598;50.508;10.436;2022-10-03T16:29:04;12.70;99.90
16964;DHT22;8598;50.508;10.436;2022-10-03T16:31:39;12.60;99.90
16964;DHT22;8598;50.508;10.436;2022-10-03T16:34:12;12.60;99.90
16964;DHT22;8598;50.508;10.436;2022-10-03T16:36:44;12.50;99.90
16964;DHT22;8598;50.508;10.436;2022-10-03T16:39:18;12.40;99.90
16964;DHT22;8598;50.508;10.436;2022-10-03T16:41:50;12.40;99.90
16964;DHT22;8598;50.508;10.436;2022-10-03T16:44:22;12.30;99.90
16964;DHT22;8598;50.508;10.436;2022-10-03T16:46:50;12.10;99.90
16964;DHT22;8598;50.508;10.436;2022-10-03T16:49:29;12.00;99.90
16964;DHT22;8598;50.508;10.436;2022-10-03T16:52:17;11.80;99.90
16964;DHT22;8598;50.508;10.436;2022-10-03T16:54:45;11.80;99.90
16964;DHT22;8598;50.508;10.436;2022-10-03T16:57:14;11.50;99.90
16964;DHT22;8598;50.508;10.436;2022-10-03T16:59:46;11.40;99.90
16964;DHT22;8598;50.508;10.436;2022-10-03T17:02:20;11.20;99.90
16964;DHT22;8598;50.508;10.436;2022-10-03T17:04:50;11.10;99.90
16964;DHT22;8598;50.508;10.436;2022-10-03T17:07:21;10.90;99.90
16964;DHT22;8598;50.508;10.436;2022-10-03T17:09:50;10.70;99.90
16964;DHT22;8598;50.508;10.436;2022-10-03T17:12:22;10.60;99.90
16964;DHT22;8598;50.508;10.436;2022-10-03T17:14:52;10.50;99.90
16964;DHT22;8598;50.508;10.436;2022-10-03T17:17:26;10.30;99.90
16964;DHT22;8598;50.508;10.436;2022-10-03T17:19:58;10.20;99.90
16964;DHT22;8598;50.508;10.436;2022-10-03T17:22:32;10.10;99.90
16964;DHT22;8598;50.508;10.436;2022-10-03T17:25:04;10.00;99.90
16964;DHT22;8598;50.508;10.436;2022-10-03T17:27:36;9.80;99.90
16964;DHT22;8598;50.508;10.436;2022-10-03T17:30:10;9.80;99.90
16964;DHT22;8598;50.508;10.436;2022-10-03T17:32:42;9.60;99.90
16964;DHT22;8598;50.508;10.436;2022-10-03T17:35:14;9.50;99.90
16964;DHT22;8598;50.508;10.436;2022-10-03T17:38:10;9.40;99.90
16964;DHT22;8598;50.508;10.436;2022-10-03T17:40:49;9.30;99.90
16964;DHT22;8598;50.508;10.436;2022-10-03T17:43:23;9.20;99.90
16964;DHT22;8598;50.508;10.436;2022-10-03T17:46:01;9.10;99.90
16964;DHT22;8598;50.508;10.436;2022-10-03T17:48:34;9.00;99.90
16964;DHT22;8598;50.508;10.436;2022-10-03T17:51:27;8.90;99.90
16964;DHT22;8598;50.508;10.436;2022-10-03T17:53:59;8.80;99.90
16964;DHT22;8598;50.508;10.436;2022-10-03T17:56:30;8.70;99.90
16964;DHT22;8598;50.508;10.436;2022-10-03T17:59:03;8.70;99.90
16964;DHT22;8598;50.508;10.436;2022-10-03T18:01:35;8.60;99.90
16964;DHT22;8598;50.508;10.436;2022-10-03T18:04:04;8.60;99.90
16964;DHT22;8598;50.508;10.436;2022-10-03T18:06:38;8.50;99.90
16964;DHT22;8598;50.508;10.436;2022-10-03T18:09:20;8.40;99.90
16964;DHT22;8598;50.508;10.436;2022-10-03T18:11:49;8.30;99.90
16964;DHT22;8598;50.508;10.436;2022-10-03T18:14:28;8.20;99.90
16964;DHT22;8598;50.508;10.436;2022-10-03T18:17:02;8.10;99.90
16964;DHT22;8598;50.508;10.436;2022-10-03T18:19:44;8.00;99.90
16964;DHT22;8598;50.508;10.436;2022-10-03T18:22:17;7.80;99.90
16964;DHT22;8598;50.508;10.436;2022-10-03T18:24:57;7.80;99.90
16964;DHT22;8598;50.508;10.436;2022-10-03T18:28:02;7.70;99.90
16964;DHT22;8598;50.508;10.436;2022-10-03T18:30:34;7.60;99.90
16964;DHT22;8598;50.508;10.436;2022-10-03T18:33:12;7.60;99.90
16964;DHT22;8598;50.508;10.436;2022-10-03T18:35:41;7.50;99.90
16964;DHT22;8598;50.508;10.436;2022-10-03T18:38:16;7.50;99.90
16964;DHT22;8598;50.508;10.436;2022-10-03T18:40:49;7.50;99.90
16964;DHT22;8598;50.508;10.436;2022-10-03T18:43:26;7.50;99.90
16964;DHT22;8598;50.508;10.436;2022-10-03T18:45:59;7.50;99.90
16964;DHT22;8598;50.508;10.436;2022-10-03T18:48:33;7.50;99.90
16964;DHT22;8598;50.508;10.436;2022-10-03T18:51:09;7.40;99.90
16964;DHT22;8598;50.508;10.436;2022-10-03T18:53:40;7.30;99.90
16964;DHT22;8598;50.508;10.436;2022-10-03T18:56:12;7.40;99.90
16964;DHT22;8598;50.508;10.436;2022-10-03T18:58:54;7.30;99.90
16964;DHT22;8598;50.508;10.436;2022-10-03T19:01:25;7.40;99.90
16964;DHT22;8598;50.508;10.436;2022-10-03T19:03:57;7.30;99.90
16964;DHT22;8598;50.508;10.436;2022-10-03T19:06:27;7.10;99.90
16964;DHT22;8598;50.508;10.436;2022-10-03T19:08:59;7.00;99.90
16964;DHT22;8598;50.508;10.436;2022-10-03T19:11:32;7.00;99.90
16964;DHT22;8598;50.508;10.436;2022-10-03T19:14:05;6.90;99.90
16964;DHT22;8598;50.508;10.436;2022-10-03T19:16:48;6.90;99.90
16964;DHT22;8598;50.508;10.436;2022-10-03T19:19:23;6.90;99.90
16964;DHT22;8598;50.508;10.436;2022-10-03T19:21:51;7.00;99.90
16964;DHT22;8598;50.508;10.436;2022-10-03T19:24:20;6.90;99.90
16964;DHT22;8598;50.508;10.436;2022-10-03T19:26:51;6.80;99.90
16964;DHT22;8598;50.508;10.436;2022-10-03T19:29:23;6.80;99.90
16964;DHT22;8598;50.508;10.436;2022-10-03T19:32:00;6.70;99.90
16964;DHT22;8598;50.508;10.436;2022-10-03T19:34:34;6.70;99.90
16964;DHT22;8598;50.508;10.436;2022-10-03T19:37:04;6.70;99.90
16964;DHT22;8598;50.508;10.436;2022-10-03T19:39:32;6.80;99.90